Baddeck, Canada
Current Conditions -  °F | °C
As of 11:00 PM on Sunday 23 Nov 2014 (Local Time) from CYQY Reporting Station
Few Clouds Few Clouds  
Wind Chill: 21°   Ceiling: Unl
Heat Index: 28°   Visibility: 15mi
Dew Point: 27°   Wind: 7mph
Humidity: 93%   Direction: 230°SW
Pressure: 30.17"   Gusts: NA
Location:  46.1°N, 60.75°W
Report Text: CYQY 240300Z 23006KT 15SM FEW043 M02/M03 A3017 RMK SC2 SLP219
Loading
Personal Weather Stations






























Interactive Weather Map New forecast layout! Learn more

10-Day Weather Forecast

Advertisements
Track Severe Weather on mobile